Collinston, Louisiana
Current Conditions -  °F | °C
As of 9:35 AM on Saturday 22 Nov 2014 (Local Time) from KBQP Reporting Station
Clear Clear  
Wind Chill: 62°   Ceiling: Unl
Heat Index: 62°   Visibility: 10mi
Dew Point: 48°   Wind: 5mph
Humidity: 62%   Direction: 110°ESE
Pressure: 30.21"   Gusts: NA
Location:  32.69°N, 91.87°W
Report Text: KBQP 221535Z AUTO 11004KT 10SM CLR 16/09 A3021 RMK AO2 LTG DSNT W T01640091
Loading
Personal Weather Stations






























Interactive Weather Map New forecast layout! Learn more

10-Day Weather Forecast

Advertisements
Track Severe Weather on mobile